sensor_id;sensor_type;location;lat;lon;timestamp;pressure;altitude;pressure_sealevel;temperature;humidity
57801;BME280;43627;42.728;23.256;2022-07-29T00:02:27;95155.78;;;19.29;100.00
57801;BME280;43627;42.728;23.256;2022-07-29T00:04:54;95161.16;;;18.86;100.00
57801;BME280;43627;42.728;23.256;2022-07-29T00:07:21;95163.75;;;18.62;100.00
57801;BME280;43627;42.728;23.256;2022-07-29T00:09:47;95152.47;;;18.54;100.00
57801;BME280;43627;42.728;23.256;2022-07-29T00:12:21;95161.53;;;18.54;100.00
57801;BME280;43627;42.728;23.256;2022-07-29T00:14:53;95154.72;;;18.55;100.00
57801;BME280;43627;42.728;23.256;2022-07-29T00:17:21;95161.00;;;18.67;100.00
57801;BME280;43627;42.728;23.256;2022-07-29T00:19:47;95163.00;;;18.61;100.00
57801;BME280;43627;42.728;23.256;2022-07-29T00:22:14;95153.75;;;18.47;100.00
57801;BME280;43627;42.728;23.256;2022-07-29T00:24:41;95159.09;;;18.40;100.00
57801;BME280;43627;42.728;23.256;2022-07-29T00:27:07;95159.91;;;18.23;100.00
57801;BME280;43627;42.728;23.256;2022-07-29T00:29:34;95173.94;;;18.25;100.00
57801;BME280;43627;42.728;23.256;2022-07-29T00:32:01;95170.72;;;18.16;100.00
57801;BME280;43627;42.728;23.256;2022-07-29T00:34:29;95177.50;;;18.09;100.00
57801;BME280;43627;42.728;23.256;2022-07-29T00:37:14;95185.34;;;17.77;100.00
57801;BME280;43627;42.728;23.256;2022-07-29T00:39:40;95190.09;;;17.65;100.00
57801;BME280;43627;42.728;23.256;2022-07-29T00:42:07;95176.34;;;17.54;100.00
57801;BME280;43627;42.728;23.256;2022-07-29T00:44:38;95168.06;;;17.32;100.00
57801;BME280;43627;42.728;23.256;2022-07-29T00:47:06;95170.31;;;17.39;100.00
57801;BME280;43627;42.728;23.256;2022-07-29T00:49:34;95178.34;;;17.37;100.00
57801;BME280;43627;42.728;23.256;2022-07-29T00:52:02;95170.31;;;17.28;100.00
57801;BME280;43627;42.728;23.256;2022-07-29T00:54:29;95176.09;;;17.35;100.00
57801;BME280;43627;42.728;23.256;2022-07-29T00:56:59;95173.34;;;17.35;100.00
57801;BME280;43627;42.728;23.256;2022-07-29T00:59:27;95170.81;;;17.32;100.00
57801;BME280;43627;42.728;23.256;2022-07-29T01:02:02;95167.56;;;17.33;100.00
57801;BME280;43627;42.728;23.256;2022-07-29T01:04:30;95172.81;;;17.42;100.00
57801;BME280;43627;42.728;23.256;2022-07-29T01:06:58;95156.28;;;17.48;100.00
57801;BME280;43627;42.728;23.256;2022-07-29T01:09:27;95150.25;;;17.50;100.00
57801;BME280;43627;42.728;23.256;2022-07-29T01:12:18;95152.53;;;17.40;100.00
57801;BME280;43627;42.728;23.256;2022-07-29T01:14:47;95152.28;;;17.44;100.00
57801;BME280;43627;42.728;23.256;2022-07-29T01:20:17;95147.75;;;17.57;100.00
57801;BME280;43627;42.728;23.256;2022-07-29T01:26:01;95125.66;;;17.68;100.00
57801;BME280;43627;42.728;23.256;2022-07-29T01:28:49;95124.69;;;17.72;100.00
57801;BME280;43627;42.728;23.256;2022-07-29T01:34:08;95125.91;;;17.87;100.00
57801;BME280;43627;42.728;23.256;2022-07-29T01:36:44;95132.41;;;17.95;100.00
57801;BME280;43627;42.728;23.256;2022-07-29T01:39:39;95131.13;;;18.02;100.00
57801;BME280;43627;42.728;23.256;2022-07-29T01:47:44;95136.91;;;18.04;100.00
57801;BME280;43627;42.728;23.256;2022-07-29T01:50:16;95120.56;;;18.12;100.00
57801;BME280;43627;42.728;23.256;2022-07-29T01:52:59;95117.28;;;18.13;100.00
57801;BME280;43627;42.728;23.256;2022-07-29T01:55:34;95120.00;;;18.19;100.00
57801;BME280;43627;42.728;23.256;2022-07-29T01:58:03;95125.53;;;18.24;100.00
57801;BME280;43627;42.728;23.256;2022-07-29T02:00:33;95118.22;;;18.27;100.00
57801;BME280;43627;42.728;23.256;2022-07-29T02:03:02;95119.47;;;18.32;100.00
57801;BME280;43627;42.728;23.256;2022-07-29T02:05:31;95122.47;;;18.34;100.00
57801;BME280;43627;42.728;23.256;2022-07-29T02:08:00;95108.16;;;18.35;100.00
57801;BME280;43627;42.728;23.256;2022-07-29T02:10:29;95105.91;;;18.34;100.00
57801;BME280;43627;42.728;23.256;2022-07-29T02:12:58;95117.91;;;18.42;100.00
57801;BME280;43627;42.728;23.256;2022-07-29T02:15:27;95122.41;;;18.45;100.00
57801;BME280;43627;42.728;23.256;2022-07-29T02:17:58;95121.94;;;18.41;100.00
57801;BME280;43627;42.728;23.256;2022-07-29T02:20:27;95109.19;;;18.32;100.00
57801;BME280;43627;42.728;23.256;2022-07-29T02:22:55;95107.69;;;18.31;100.00
57801;BME280;43627;42.728;23.256;2022-07-29T02:25:24;95110.22;;;18.23;100.00
57801;BME280;43627;42.728;23.256;2022-07-29T02:28:04;95111.97;;;18.26;100.00
57801;BME280;43627;42.728;23.256;2022-07-29T02:30:32;95096.94;;;18.16;100.00
57801;BME280;43627;42.728;23.256;2022-07-29T02:32:59;95089.19;;;18.09;100.00
57801;BME280;43627;42.728;23.256;2022-07-29T02:35:27;95094.75;;;18.04;100.00
57801;BME280;43627;42.728;23.256;2022-07-29T02:38:00;95101.03;;;18.04;100.00
57801;BME280;43627;42.728;23.256;2022-07-29T02:40:48;95103.22;;;18.17;100.00
57801;BME280;43627;42.728;23.256;2022-07-29T02:43:17;95107.53;;;18.12;100.00
57801;BME280;43627;42.728;23.256;2022-07-29T02:45:47;95103.53;;;18.02;100.00
57801;BME280;43627;42.728;23.256;2022-07-29T02:48:21;95095.78;;;18.01;100.00
57801;BME280;43627;42.728;23.256;2022-07-29T02:50:52;95085.22;;;18.05;100.00
57801;BME280;43627;42.728;23.256;2022-07-29T02:53:26;95079.97;;;18.01;100.00
57801;BME280;43627;42.728;23.256;2022-07-29T02:55:57;95100.53;;;18.00;100.00
57801;BME280;43627;42.728;23.256;2022-07-29T02:58:34;95098.56;;;17.95;100.00
57801;BME280;43627;42.728;23.256;2022-07-29T03:01:10;95096.59;;;17.79;100.00
57801;BME280;43627;42.728;23.256;2022-07-29T03:03:42;95095.59;;;17.70;100.00
57801;BME280;43627;42.728;23.256;2022-07-29T03:06:13;95097.63;;;17.70;100.00
57801;BME280;43627;42.728;23.256;2022-07-29T03:09:01;95101.38;;;17.67;100.00
57801;BME280;43627;42.728;23.256;2022-07-29T03:11:32;95100.88;;;17.63;100.00
57801;BME280;43627;42.728;23.256;2022-07-29T03:14:17;95096.88;;;17.53;100.00
57801;BME280;43627;42.728;23.256;2022-07-29T03:16:46;95101.91;;;17.49;100.00
57801;BME280;43627;42.728;23.256;2022-07-29T03:19:14;95098.91;;;17.41;100.00
57801;BME280;43627;42.728;23.256;2022-07-29T03:21:41;95108.91;;;17.55;100.00
57801;BME280;43627;42.728;23.256;2022-07-29T03:24:08;95105.13;;;17.58;100.00
57801;BME280;43627;42.728;23.256;2022-07-29T03:26:37;95106.19;;;17.44;100.00
57801;BME280;43627;42.728;23.256;2022-07-29T03:29:04;95103.91;;;17.48;100.00
57801;BME280;43627;42.728;23.256;2022-07-29T03:31:32;95103.16;;;17.53;100.00
57801;BME280;43627;42.728;23.256;2022-07-29T03:33:59;95108.66;;;17.59;100.00
57801;BME280;43627;42.728;23.256;2022-07-29T03:36:26;95108.91;;;17.55;100.00
57801;BME280;43627;42.728;23.256;2022-07-29T03:38:53;95121.44;;;17.56;100.00
57801;BME280;43627;42.728;23.256;2022-07-29T03:41:22;95115.41;;;17.52;100.00
57801;BME280;43627;42.728;23.256;2022-07-29T03:43:49;95107.19;;;17.30;100.00
57801;BME280;43627;42.728;23.256;2022-07-29T03:46:21;95107.19;;;17.30;100.00
57801;BME280;43627;42.728;23.256;2022-07-29T03:48:52;95124.47;;;17.30;100.00
57801;BME280;43627;42.728;23.256;2022-07-29T03:51:21;95128.47;;;17.29;100.00
57801;BME280;43627;42.728;23.256;2022-07-29T03:53:58;95126.72;;;17.32;100.00
57801;BME280;43627;42.728;23.256;2022-07-29T03:56:27;95113.69;;;17.49;100.00
57801;BME280;43627;42.728;23.256;2022-07-29T03:58:55;95112.09;;;17.93;100.00
57801;BME280;43627;42.728;23.256;2022-07-29T04:01:22;95112.13;;;18.45;100.00
57801;BME280;43627;42.728;23.256;2022-07-29T04:03:50;95112.84;;;18.51;100.00
57801;BME280;43627;42.728;23.256;2022-07-29T04:06:17;95106.63;;;18.40;100.00
57801;BME280;43627;42.728;23.256;2022-07-29T04:08:44;95119.84;;;18.58;100.00
57801;BME280;43627;42.728;23.256;2022-07-29T04:11:11;95116.56;;;18.60;100.00
57801;BME280;43627;42.728;23.256;2022-07-29T04:13:39;95108.75;;;18.64;100.00
57801;BME280;43627;42.728;23.256;2022-07-29T04:16:05;95114.78;;;18.68;100.00
57801;BME280;43627;42.728;23.256;2022-07-29T04:18:32;95106.47;;;18.73;100.00
57801;BME280;43627;42.728;23.256;2022-07-29T04:20:59;95111.91;;;18.84;100.00
57801;BME280;43627;42.728;23.256;2022-07-29T04:23:29;95116.88;;;18.92;100.00
57801;BME280;43627;42.728;23.256;2022-07-29T04:25:58;95116.84;;;18.97;100.00
57801;BME280;43627;42.728;23.256;2022-07-29T04:28:27;95118.56;;;19.06;100.00
57801;BME280;43627;42.728;23.256;2022-07-29T04:30:54;95111.97;;;19.15;100.00
57801;BME280;43627;42.728;23.256;2022-07-29T04:33:21;95106.47;;;19.09;100.00
57801;BME280;43627;42.728;23.256;2022-07-29T04:35:50;95135.66;;;19.64;100.00
57801;BME280;43627;42.728;23.256;2022-07-29T04:38:21;95126.06;;;19.71;100.00
57801;BME280;43627;42.728;23.256;2022-07-29T04:40:48;95134.59;;;19.73;100.00
57801;BME280;43627;42.728;23.256;2022-07-29T04:43:15;95138.44;;;19.89;100.00
57801;BME280;43627;42.728;23.256;2022-07-29T04:45:48;95128.69;;;20.07;100.00
57801;BME280;43627;42.728;23.256;2022-07-29T04:48:14;95136.63;;;20.16;100.00
57801;BME280;43627;42.728;23.256;2022-07-29T04:50:41;95137.69;;;19.88;100.00
57801;BME280;43627;42.728;23.256;2022-07-29T04:53:08;95147.72;;;19.67;100.00
57801;BME280;43627;42.728;23.256;2022-07-29T04:55:35;95145.00;;;19.61;100.00
57801;BME280;43627;42.728;23.256;2022-07-29T04:58:04;95131.13;;;19.67;100.00
57801;BME280;43627;42.728;23.256;2022-07-29T05:00:31;95145.00;;;19.61;100.00
57801;BME280;43627;42.728;23.256;2022-07-29T05:02:59;95143.22;;;19.64;100.00
57801;BME280;43627;42.728;23.256;2022-07-29T05:05:26;95139.03;;;19.82;100.00
57801;BME280;43627;42.728;23.256;2022-07-29T05:07:52;95121.78;;;19.94;100.00
57801;BME280;43627;42.728;23.256;2022-07-29T05:10:19;95145.31;;;20.25;100.00
57801;BME280;43627;42.728;23.256;2022-07-29T05:12:46;95146.19;;;20.15;100.00
57801;BME280;43627;42.728;23.256;2022-07-29T05:15:13;95143.44;;;20.15;100.00
57801;BME280;43627;42.728;23.256;2022-07-29T05:17:40;95143.34;;;20.82;98.14
57801;BME280;43627;42.728;23.256;2022-07-29T05:20:07;95151.78;;;21.28;92.22
57801;BME280;43627;42.728;23.256;2022-07-29T05:22:34;95156.72;;;21.35;92.02
57801;BME280;43627;42.728;23.256;2022-07-29T05:25:02;95146.59;;;21.19;92.15
57801;BME280;43627;42.728;23.256;2022-07-29T05:27:35;95159.88;;;21.26;91.22
57801;BME280;43627;42.728;23.256;2022-07-29T05:30:02;95148.22;;;20.95;93.29
57801;BME280;43627;42.728;23.256;2022-07-29T05:32:29;95148.44;;;20.97;92.72
57801;BME280;43627;42.728;23.256;2022-07-29T05:34:56;95144.78;;;21.40;91.49
57801;BME280;43627;42.728;23.256;2022-07-29T05:37:22;95152.13;;;21.83;86.79
57801;BME280;43627;42.728;23.256;2022-07-29T05:39:49;95157.91;;;21.85;86.44
57801;BME280;43627;42.728;23.256;2022-07-29T05:42:23;95157.28;;;21.92;86.12
57801;BME280;43627;42.728;23.256;2022-07-29T05:44:50;95167.13;;;22.33;84.40
57801;BME280;43627;42.728;23.256;2022-07-29T05:47:18;95175.03;;;22.42;82.38
57801;BME280;43627;42.728;23.256;2022-07-29T05:49:45;95167.75;;;22.65;82.32
57801;BME280;43627;42.728;23.256;2022-07-29T05:52:12;95170.50;;;22.78;79.90
57801;BME280;43627;42.728;23.256;2022-07-29T05:54:39;95171.69;;;23.17;78.38
57801;BME280;43627;42.728;23.256;2022-07-29T05:57:06;95167.56;;;23.52;77.15
57801;BME280;43627;42.728;23.256;2022-07-29T05:59:37;95163.34;;;24.01;75.62
57801;BME280;43627;42.728;23.256;2022-07-29T06:02:04;95168.91;;;24.29;71.69
57801;BME280;43627;42.728;23.256;2022-07-29T06:04:32;95173.31;;;24.17;70.98
57801;BME280;43627;42.728;23.256;2022-07-29T06:07:00;95166.06;;;24.50;69.61
57801;BME280;43627;42.728;23.256;2022-07-29T06:09:27;95168.47;;;24.46;70.18
57801;BME280;43627;42.728;23.256;2022-07-29T06:11:54;95166.13;;;24.58;68.37
57801;BME280;43627;42.728;23.256;2022-07-29T06:14:21;95180.38;;;24.46;68.93
57801;BME280;43627;42.728;23.256;2022-07-29T06:16:48;95174.16;;;24.69;69.18
57801;BME280;43627;42.728;23.256;2022-07-29T06:19:14;95179.06;;;24.84;68.59
57801;BME280;43627;42.728;23.256;2022-07-29T06:21:43;95170.66;;;24.76;68.82
57801;BME280;43627;42.728;23.256;2022-07-29T06:24:13;95176.94;;;25.05;69.64
57801;BME280;43627;42.728;23.256;2022-07-29T06:26:41;95169.25;;;24.98;69.19
57801;BME280;43627;42.728;23.256;2022-07-29T06:29:09;95164.50;;;25.14;67.84
57801;BME280;43627;42.728;23.256;2022-07-29T06:31:37;95162.31;;;25.43;65.16
57801;BME280;43627;42.728;23.256;2022-07-29T06:34:04;95160.06;;;25.26;65.37
57801;BME280;43627;42.728;23.256;2022-07-29T06:36:34;95164.03;;;25.61;62.95
57801;BME280;43627;42.728;23.256;2022-07-29T06:39:06;95167.75;;;25.86;61.27
57801;BME280;43627;42.728;23.256;2022-07-29T06:41:34;95173.56;;;25.88;61.26
57801;BME280;43627;42.728;23.256;2022-07-29T06:44:02;95167.19;;;25.50;62.77
57801;BME280;43627;42.728;23.256;2022-07-29T06:46:28;95166.28;;;25.78;63.32
57801;BME280;43627;42.728;23.256;2022-07-29T06:48:55;95163.09;;;26.19;59.72
57801;BME280;43627;42.728;23.256;2022-07-29T06:51:22;95167.91;;;26.42;58.06
57801;BME280;43627;42.728;23.256;2022-07-29T06:53:53;95162.63;;;26.61;57.94
57801;BME280;43627;42.728;23.256;2022-07-29T06:56:25;95162.47;;;26.52;57.97
57801;BME280;43627;42.728;23.256;2022-07-29T06:58:52;95158.31;;;26.75;55.58
57801;BME280;43627;42.728;23.256;2022-07-29T07:01:18;95155.22;;;26.48;54.94
57801;BME280;43627;42.728;23.256;2022-07-29T07:03:47;95156.91;;;26.29;57.85
57801;BME280;43627;42.728;23.256;2022-07-29T07:06:14;95153.38;;;26.36;57.61
57801;BME280;43627;42.728;23.256;2022-07-29T07:08:41;95153.22;;;26.18;57.90
57801;BME280;43627;42.728;23.256;2022-07-29T07:11:08;95158.75;;;26.49;56.40
57801;BME280;43627;42.728;23.256;2022-07-29T07:13:35;95156.50;;;26.63;56.55
57801;BME280;43627;42.728;23.256;2022-07-29T07:16:03;95149.22;;;27.00;55.76
57801;BME280;43627;42.728;23.256;2022-07-29T07:18:30;95139.84;;;26.72;50.89
57801;BME280;43627;42.728;23.256;2022-07-29T07:20:57;95154.72;;;26.83;52.17
57801;BME280;43627;42.728;23.256;2022-07-29T07:23:25;95154.94;;;26.77;51.19
57801;BME280;43627;42.728;23.256;2022-07-29T07:25:52;95156.53;;;26.47;50.18
57801;BME280;43627;42.728;23.256;2022-07-29T07:28:19;95158.59;;;26.47;49.75
57801;BME280;43627;42.728;23.256;2022-07-29T07:30:50;95146.81;;;26.56;49.72
57801;BME280;43627;42.728;23.256;2022-07-29T07:33:18;95151.44;;;26.61;49.13
57801;BME280;43627;42.728;23.256;2022-07-29T07:35:44;95147.81;;;26.84;48.01
57801;BME280;43627;42.728;23.256;2022-07-29T07:38:11;95145.13;;;27.01;47.40
57801;BME280;43627;42.728;23.256;2022-07-29T07:40:38;95145.72;;;27.32;47.57
57801;BME280;43627;42.728;23.256;2022-07-29T07:43:05;95148.28;;;27.38;45.86
57801;BME280;43627;42.728;23.256;2022-07-29T07:45:32;95147.56;;;27.04;46.78
57801;BME280;43627;42.728;23.256;2022-07-29T07:48:04;95159.81;;;27.17;46.64
57801;BME280;43627;42.728;23.256;2022-07-29T07:50:31;95140.16;;;27.24;46.21
57801;BME280;43627;42.728;23.256;2022-07-29T07:52:58;95151.22;;;27.47;45.90
57801;BME280;43627;42.728;23.256;2022-07-29T07:55:26;95134.88;;;27.36;46.46
57801;BME280;43627;42.728;23.256;2022-07-29T07:57:54;95141.41;;;27.06;46.90
57801;BME280;43627;42.728;23.256;2022-07-29T08:00:21;95131.19;;;27.26;46.59
57801;BME280;43627;42.728;23.256;2022-07-29T08:02:49;95129.75;;;27.50;45.86
57801;BME280;43627;42.728;23.256;2022-07-29T08:05:17;95127.50;;;27.23;46.60
57801;BME280;43627;42.728;23.256;2022-07-29T08:07:45;95135.19;;;27.15;46.56
57801;BME280;43627;42.728;23.256;2022-07-29T08:10:13;95129.00;;;27.17;46.08
57801;BME280;43627;42.728;23.256;2022-07-29T08:12:41;95133.28;;;26.77;46.70
57801;BME280;43627;42.728;23.256;2022-07-29T08:15:08;95114.75;;;26.57;47.20
57801;BME280;43627;42.728;23.256;2022-07-29T08:17:35;95135.66;;;26.89;47.16
57801;BME280;43627;42.728;23.256;2022-07-29T08:20:02;95144.19;;;27.06;47.55
57801;BME280;43627;42.728;23.256;2022-07-29T08:22:29;95142.22;;;26.84;47.54
57801;BME280;43627;42.728;23.256;2022-07-29T08:24:55;95142.81;;;27.22;47.44
57801;BME280;43627;42.728;23.256;2022-07-29T08:27:23;95141.91;;;27.20;46.92
57801;BME280;43627;42.728;23.256;2022-07-29T08:30:09;95138.59;;;27.39;47.10
57801;BME280;43627;42.728;23.256;2022-07-29T08:32:36;95137.09;;;27.63;46.00
57801;BME280;43627;42.728;23.256;2022-07-29T08:35:21;95148.97;;;27.46;46.10
57801;BME280;43627;42.728;23.256;2022-07-29T08:37:48;95134.66;;;27.92;44.05
57801;BME280;43627;42.728;23.256;2022-07-29T08:40:15;95134.09;;;28.35;43.03
57801;BME280;43627;42.728;23.256;2022-07-29T08:42:42;95133.03;;;28.23;42.91
57801;BME280;43627;42.728;23.256;2022-07-29T08:45:09;95131.91;;;28.26;42.45
57801;BME280;43627;42.728;23.256;2022-07-29T08:47:38;95134.13;;;27.85;44.00
57801;BME280;43627;42.728;23.256;2022-07-29T08:50:08;95118.91;;;28.38;43.65
57801;BME280;43627;42.728;23.256;2022-07-29T08:52:36;95132.34;;;28.57;42.66
57801;BME280;43627;42.728;23.256;2022-07-29T08:55:08;95132.34;;;28.40;43.17
57801;BME280;43627;42.728;23.256;2022-07-29T08:57:35;95125.84;;;28.55;42.74
57801;BME280;43627;42.728;23.256;2022-07-29T09:00:06;95114.28;;;28.33;41.98
57801;BME280;43627;42.728;23.256;2022-07-29T09:02:41;95121.88;;;28.40;42.39
57801;BME280;43627;42.728;23.256;2022-07-29T09:05:13;95119.22;;;28.42;42.52
57801;BME280;43627;42.728;23.256;2022-07-29T09:07:39;95122.88;;;28.53;42.23
57801;BME280;43627;42.728;23.256;2022-07-29T09:10:09;95117.50;;;28.30;41.51
57801;BME280;43627;42.728;23.256;2022-07-29T09:12:36;95113.41;;;28.23;42.42
57801;BME280;43627;42.728;23.256;2022-07-29T09:15:04;95117.06;;;28.51;42.38
57801;BME280;43627;42.728;23.256;2022-07-29T09:17:44;95107.03;;;28.48;41.65
57801;BME280;43627;42.728;23.256;2022-07-29T09:20:15;95110.41;;;28.63;41.23
57801;BME280;43627;42.728;23.256;2022-07-29T09:22:42;95110.13;;;28.69;40.51
57801;BME280;43627;42.728;23.256;2022-07-29T09:25:11;95103.03;;;28.51;41.14
57801;BME280;43627;42.728;23.256;2022-07-29T09:27:38;95103.53;;;28.57;41.30
57801;BME280;43627;42.728;23.256;2022-07-29T09:30:09;95108.34;;;28.29;41.18
57801;BME280;43627;42.728;23.256;2022-07-29T09:33:00;95100.09;;;28.49;41.51
57801;BME280;43627;42.728;23.256;2022-07-29T09:35:30;95094.38;;;28.73;40.93
57801;BME280;43627;42.728;23.256;2022-07-29T09:37:57;95093.03;;;28.92;40.62
57801;BME280;43627;42.728;23.256;2022-07-29T09:40:27;95089.50;;;28.91;39.09
57801;BME280;43627;42.728;23.256;2022-07-29T09:42:54;95100.78;;;29.01;39.19
57801;BME280;43627;42.728;23.256;2022-07-29T09:47:54;95100.75;;;29.28;38.65
57801;BME280;43627;42.728;23.256;2022-07-29T09:50:38;95087.59;;;29.57;38.42
57801;BME280;43627;42.728;23.256;2022-07-29T09:53:05;95087.28;;;29.53;37.42
57801;BME280;43627;42.728;23.256;2022-07-29T09:55:32;95081.41;;;29.32;37.27
57801;BME280;43627;42.728;23.256;2022-07-29T09:58:19;95084.97;;;29.33;37.94
57801;BME280;43627;42.728;23.256;2022-07-29T10:00:48;95087.03;;;29.32;37.00
57801;BME280;43627;42.728;23.256;2022-07-29T10:03:16;95088.50;;;29.33;37.08
57801;BME280;43627;42.728;23.256;2022-07-29T10:05:44;95075.38;;;29.45;37.33
57801;BME280;43627;42.728;23.256;2022-07-29T10:08:12;95070.44;;;29.26;37.30
57801;BME280;43627;42.728;23.256;2022-07-29T10:10:40;95074.22;;;29.12;37.63
57801;BME280;43627;42.728;23.256;2022-07-29T10:13:13;95060.09;;;28.92;38.86
57801;BME280;43627;42.728;23.256;2022-07-29T10:15:44;95060.28;;;29.31;38.63
57801;BME280;43627;42.728;23.256;2022-07-29T10:18:13;95055.81;;;29.65;37.39
57801;BME280;43627;42.728;23.256;2022-07-29T10:20:41;95065.03;;;29.38;37.55
57801;BME280;43627;42.728;23.256;2022-07-29T10:23:08;95058.66;;;29.84;38.01
57801;BME280;43627;42.728;23.256;2022-07-29T10:25:35;95058.28;;;30.36;36.58
57801;BME280;43627;42.728;23.256;2022-07-29T10:28:02;95056.50;;;30.31;36.55
57801;BME280;43627;42.728;23.256;2022-07-29T10:30:29;95062.41;;;29.96;35.99
57801;BME280;43627;42.728;23.256;2022-07-29T10:41:43;95037.38;;;29.91;36.94
57801;BME280;43627;42.728;23.256;2022-07-29T10:44:18;95036.16;;;29.74;36.97
57801;BME280;43627;42.728;23.256;2022-07-29T10:46:49;95027.59;;;29.82;36.16
57801;BME280;43627;42.728;23.256;2022-07-29T10:49:21;95040.31;;;29.83;36.00
57801;BME280;43627;42.728;23.256;2022-07-29T10:52:00;95024.91;;;29.74;36.37
57801;BME280;43627;42.728;23.256;2022-07-29T10:59:40;95010.44;;;29.78;35.56
57801;BME280;43627;42.728;23.256;2022-07-29T11:02:41;95016.94;;;29.80;36.06
57801;BME280;43627;42.728;23.256;2022-07-29T11:05:16;95012.53;;;29.97;36.03
57801;BME280;43627;42.728;23.256;2022-07-29T11:11:31;95007.06;;;30.28;34.93
57801;BME280;43627;42.728;23.256;2022-07-29T11:13:47;95004.41;;;30.10;34.79
57801;BME280;43627;42.728;23.256;2022-07-29T11:16:16;94997.19;;;30.07;35.21
57801;BME280;43627;42.728;23.256;2022-07-29T11:21:36;94998.91;;;30.32;34.84
57801;BME280;43627;42.728;23.256;2022-07-29T11:24:26;95001.00;;;30.31;34.92
57801;BME280;43627;42.728;23.256;2022-07-29T11:27:10;94992.09;;;30.54;34.15
57801;BME280;43627;42.728;23.256;2022-07-29T11:29:41;94992.41;;;30.39;34.22
57801;BME280;43627;42.728;23.256;2022-07-29T11:32:16;94986.63;;;30.47;34.92
57801;BME280;43627;42.728;23.256;2022-07-29T11:35:10;94998.13;;;30.60;34.30
57801;BME280;43627;42.728;23.256;2022-07-29T11:38:23;94987.88;;;30.84;34.28
57801;BME280;43627;42.728;23.256;2022-07-29T11:40:36;94989.59;;;31.09;34.38
57801;BME280;43627;42.728;23.256;2022-07-29T11:43:03;94989.47;;;30.97;33.55
57801;BME280;43627;42.728;23.256;2022-07-29T11:45:46;94975.81;;;31.03;33.65
57801;BME280;43627;42.728;23.256;2022-07-29T11:48:17;94983.28;;;30.79;33.76
57801;BME280;43627;42.728;23.256;2022-07-29T11:50:58;94970.97;;;30.94;34.18
57801;BME280;43627;42.728;23.256;2022-07-29T11:53:26;94974.97;;;31.32;33.27
57801;BME280;43627;42.728;23.256;2022-07-29T11:55:58;94962.78;;;31.39;32.95
57801;BME280;43627;42.728;23.256;2022-07-29T11:58:25;94975.16;;;31.45;33.39
57801;BME280;43627;42.728;23.256;2022-07-29T12:00:53;94984.19;;;31.22;34.01
57801;BME280;43627;42.728;23.256;2022-07-29T12:03:29;94962.28;;;31.11;33.07
57801;BME280;43627;42.728;23.256;2022-07-29T12:06:01;94973.06;;;31.24;33.76
57801;BME280;43627;42.728;23.256;2022-07-29T12:08:27;94971.31;;;31.19;33.88
57801;BME280;43627;42.728;23.256;2022-07-29T12:10:54;94954.63;;;31.33;34.06
57801;BME280;43627;42.728;23.256;2022-07-29T12:13:21;94969.94;;;31.51;33.20
57801;BME280;43627;42.728;23.256;2022-07-29T12:16:03;94967.56;;;31.26;33.43
57801;BME280;43627;42.728;23.256;2022-07-29T12:18:30;94971.34;;;31.10;33.52
57801;BME280;43627;42.728;23.256;2022-07-29T12:21:01;94956.28;;;31.26;33.40
57801;BME280;43627;42.728;23.256;2022-07-29T12:23:33;94968.59;;;31.31;33.07
57801;BME280;43627;42.728;23.256;2022-07-29T12:26:05;94961.47;;;31.30;32.80
57801;BME280;43627;42.728;23.256;2022-07-29T12:28:39;94968.25;;;31.06;33.36
57801;BME280;43627;42.728;23.256;2022-07-29T12:31:13;94959.00;;;31.46;32.88
57801;BME280;43627;42.728;23.256;2022-07-29T12:34:00;94950.22;;;31.51;32.86
57801;BME280;43627;42.728;23.256;2022-07-29T12:36:27;94954.19;;;31.58;32.62
57801;BME280;43627;42.728;23.256;2022-07-29T12:38:54;94942.63;;;31.33;32.38
57801;BME280;43627;42.728;23.256;2022-07-29T12:41:21;94950.28;;;31.11;32.82
57801;BME280;43627;42.728;23.256;2022-07-29T12:43:53;94941.34;;;31.45;32.84
57801;BME280;43627;42.728;23.256;2022-07-29T12:46:20;94954.13;;;31.68;32.81
57801;BME280;43627;42.728;23.256;2022-07-29T12:48:51;94945.63;;;31.56;32.05
57801;BME280;43627;42.728;23.256;2022-07-29T12:51:29;94943.72;;;31.49;32.06
57801;BME280;43627;42.728;23.256;2022-07-29T12:54:11;94937.53;;;31.62;31.28
57801;BME280;43627;42.728;23.256;2022-07-29T12:56:41;94927.00;;;31.63;31.89
57801;BME280;43627;42.728;23.256;2022-07-29T13:01:45;94913.44;;;30.97;32.17
57801;BME280;43627;42.728;23.256;2022-07-29T13:04:32;94926.28;;;31.41;31.91
57801;BME280;43627;42.728;23.256;2022-07-29T13:07:06;94921.56;;;31.55;31.58
57801;BME280;43627;42.728;23.256;2022-07-29T13:09:41;94917.31;;;31.75;31.40
57801;BME280;43627;42.728;23.256;2022-07-29T13:12:10;94913.94;;;31.89;31.52
57801;BME280;43627;42.728;23.256;2022-07-29T13:22:11;94920.94;;;31.99;31.36
57801;BME280;43627;42.728;23.256;2022-07-29T13:27:20;94897.06;;;32.12;30.71
57801;BME280;43627;42.728;23.256;2022-07-29T13:29:47;94897.06;;;32.45;30.83
57801;BME280;43627;42.728;23.256;2022-07-29T13:32:18;94892.91;;;32.46;31.02
57801;BME280;43627;42.728;23.256;2022-07-29T13:34:54;94895.75;;;32.70;30.65
57801;BME280;43627;42.728;23.256;2022-07-29T13:37:21;94892.63;;;32.30;30.48
57801;BME280;43627;42.728;23.256;2022-07-29T13:39:47;94900.19;;;32.28;30.63
57801;BME280;43627;42.728;23.256;2022-07-29T13:42:18;94896.97;;;32.55;30.48
57801;BME280;43627;42.728;23.256;2022-07-29T13:44:45;94891.13;;;32.29;30.73
57801;BME280;43627;42.728;23.256;2022-07-29T13:47:12;94886.47;;;32.22;31.04
57801;BME280;43627;42.728;23.256;2022-07-29T13:49:39;94886.81;;;32.28;30.88
57801;BME280;43627;42.728;23.256;2022-07-29T13:52:05;94880.91;;;32.13;30.57